Terminal Aerodrome Forecast
Issued by NWS

Home | Current Version | Previous Version | Graphics & Text | Print | Product List | Glossary On
Versions: 1 2 3 4 5 6 7 8 9 10 11 12 13 14 15 16
000
FTUS43 KMPX 171044 AAA
TAFRWF
TAF AMD
KRWF 171044Z 1711/1806 30009KT 2SM BR OVC004
     FM171200 32007KT 5SM BR BKN005
     FM171400 29007KT P6SM SCT150
     FM172000 24006KT P6SM SCT250=

USA.gov is the U.S. government's official web portal to all federal, state and local government web resources and services.